createdAt,value
2018-12-19T00:01:27.134Z,59.03
2018-12-19T00:03:55.886Z,60.75
2018-12-19T00:06:24.613Z,64.32
2018-12-19T00:08:53.612Z,60.30
2018-12-19T00:11:22.315Z,66.50
2018-12-19T00:13:51.295Z,65.32
2018-12-19T00:16:20.010Z,49.18
2018-12-19T00:18:48.705Z,61.15
2018-12-19T00:21:17.419Z,60.67
2018-12-19T00:23:46.145Z,60.12
2018-12-19T00:26:14.864Z,60.45
2018-12-19T00:28:43.598Z,62.10
2018-12-19T00:31:12.379Z,63.63
2018-12-19T00:33:41.043Z,57.25
2018-12-19T00:36:09.712Z,65.87
2018-12-19T00:38:38.437Z,56.58
2018-12-19T00:41:07.144Z,61.00
2018-12-19T00:43:36.218Z,61.37
2018-12-19T00:46:04.984Z,53.90
2018-12-19T00:48:33.763Z,53.40
2018-12-19T00:51:02.463Z,55.20
2018-12-19T00:53:31.137Z,50.35
2018-12-19T00:55:59.880Z,67.87
2018-12-19T00:58:28.588Z,55.60
2018-12-19T01:00:57.320Z,53.20
2018-12-19T01:03:26.030Z,53.15
2018-12-19T01:05:54.775Z,52.93
2018-12-19T01:08:23.507Z,55.65
2018-12-19T01:10:52.191Z,59.90
2018-12-19T01:13:20.909Z,54.95
2018-12-19T01:15:49.628Z,57.98
2018-12-19T01:18:18.375Z,55.03
2018-12-19T01:20:47.066Z,55.15
2018-12-19T01:23:15.769Z,49.77
2018-12-19T01:25:44.469Z,56.63
2018-12-19T01:28:13.374Z,63.87
2018-12-19T01:30:42.081Z,62.62
2018-12-19T01:33:10.789Z,61.70
2018-12-19T01:35:39.627Z,59.45
2018-12-19T01:38:08.365Z,61.28
2018-12-19T01:40:37.104Z,58.42
2018-12-19T01:43:05.842Z,53.17
2018-12-19T01:45:34.649Z,57.17
2018-12-19T01:48:03.338Z,55.95
2018-12-19T01:50:32.057Z,63.30
2018-12-19T01:53:00.802Z,56.55
2018-12-19T01:55:29.550Z,56.68
2018-12-19T01:57:58.289Z,53.25
2018-12-19T02:00:28.722Z,59.00
2018-12-19T02:02:57.384Z,57.45
2018-12-19T02:05:26.126Z,51.25
2018-12-19T02:07:54.840Z,47.75
2018-12-19T02:10:23.563Z,53.65
2018-12-19T02:12:52.231Z,55.25
2018-12-19T02:15:20.955Z,59.35
2018-12-19T02:17:49.674Z,60.38
2018-12-19T02:20:18.418Z,56.80
2018-12-19T02:22:47.151Z,58.15
2018-12-19T02:25:15.858Z,66.33
2018-12-19T02:27:44.531Z,53.38
2018-12-19T02:30:13.275Z,55.20
2018-12-19T02:32:41.994Z,57.45
2018-12-19T02:35:10.705Z,57.35
2018-12-19T02:37:39.881Z,56.15
2018-12-19T02:40:08.573Z,57.83
2018-12-19T02:42:37.319Z,58.87
2018-12-19T02:45:06.023Z,58.65
2018-12-19T02:47:34.735Z,49.70
2018-12-19T02:50:03.797Z,52.98
2018-12-19T02:52:32.651Z,55.10
2018-12-19T02:55:01.427Z,62.50
2018-12-19T02:57:30.174Z,48.50
2018-12-19T02:59:58.991Z,55.28
2018-12-19T03:02:27.691Z,53.98
2018-12-19T03:04:56.406Z,55.43
2018-12-19T03:07:25.088Z,50.55
2018-12-19T03:09:53.950Z,53.13
2018-12-19T03:12:22.620Z,53.08
2018-12-19T03:14:51.295Z,49.60
2018-12-19T03:17:20.011Z,51.75
2018-12-19T03:19:48.794Z,58.05
2018-12-19T03:22:17.493Z,51.77
2018-12-19T03:24:46.158Z,59.93
2018-12-19T03:27:14.848Z,54.35
2018-12-19T03:29:43.588Z,53.25
2018-12-19T03:32:12.585Z,49.50
2018-12-19T03:34:41.259Z,48.42
2018-12-19T03:37:10.083Z,51.08
2018-12-19T03:39:38.752Z,48.87
2018-12-19T03:42:07.515Z,57.65
2018-12-19T03:44:36.214Z,49.08
2018-12-19T03:47:04.943Z,48.52
2018-12-19T03:49:33.677Z,51.15
2018-12-19T03:52:02.352Z,49.93
2018-12-19T03:54:31.115Z,47.93
2018-12-19T03:57:00.267Z,48.08
2018-12-19T03:59:28.982Z,53.68
2018-12-19T04:01:58.016Z,52.00
2018-12-19T04:04:26.721Z,50.88
2018-12-19T04:06:55.405Z,48.95
2018-12-19T04:09:24.085Z,50.67
2018-12-19T04:11:52.753Z,45.60
2018-12-19T04:14:21.460Z,51.50
2018-12-19T04:16:50.213Z,43.87
2018-12-19T04:19:18.978Z,52.33
2018-12-19T04:21:47.727Z,45.40
2018-12-19T04:24:16.466Z,52.50
2018-12-19T04:26:45.496Z,51.10
2018-12-19T04:29:14.238Z,43.48
2018-12-19T04:31:42.982Z,46.98
2018-12-19T04:34:11.757Z,50.03
2018-12-19T04:36:40.484Z,46.83
2018-12-19T04:39:09.224Z,47.58
2018-12-19T04:41:37.998Z,48.87
2018-12-19T04:44:06.693Z,50.08
2018-12-19T04:46:35.435Z,47.30
2018-12-19T04:49:04.153Z,88.15
2018-12-19T04:51:32.880Z,53.73
2018-12-19T04:54:01.636Z,51.28
2018-12-19T04:56:30.342Z,46.33
2018-12-19T04:58:59.070Z,44.90
2018-12-19T05:01:27.748Z,45.17
2018-12-19T05:03:56.460Z,47.30
2018-12-19T05:06:25.244Z,53.02
2018-12-19T05:08:54.283Z,52.00
2018-12-19T05:11:22.992Z,47.98
2018-12-19T05:13:51.769Z,49.63
2018-12-19T05:16:20.664Z,65.95
2018-12-19T05:18:49.340Z,54.33
2018-12-19T05:21:18.053Z,54.23
2018-12-19T05:23:46.729Z,45.92
2018-12-19T05:26:15.433Z,50.73
2018-12-19T05:28:44.158Z,46.70
2018-12-19T05:31:12.823Z,44.40
2018-12-19T05:33:41.530Z,48.73
2018-12-19T05:36:10.267Z,44.08
2018-12-19T05:38:38.940Z,45.98
2018-12-19T05:41:07.694Z,38.58
2018-12-19T05:43:36.421Z,42.90
2018-12-19T05:46:05.140Z,57.38
2018-12-19T05:48:33.872Z,47.93
2018-12-19T05:51:02.578Z,46.23
2018-12-19T05:53:31.569Z,43.45
2018-12-19T05:56:00.296Z,41.83
2018-12-19T05:58:28.990Z,42.15
2018-12-19T06:00:57.693Z,40.80
2018-12-19T06:03:26.441Z,43.17
2018-12-19T06:05:55.165Z,46.98
2018-12-19T06:08:23.943Z,42.62
2018-12-19T06:10:52.647Z,46.30
2018-12-19T06:13:21.474Z,42.80
2018-12-19T06:15:50.188Z,37.48
2018-12-19T06:18:19.202Z,42.20
2018-12-19T06:20:47.954Z,43.65
2018-12-19T06:23:16.668Z,45.80
2018-12-19T06:25:45.455Z,36.68
2018-12-19T06:28:14.202Z,40.38
2018-12-19T06:30:43.142Z,39.23
2018-12-19T06:33:11.905Z,41.77
2018-12-19T06:35:40.623Z,38.45
2018-12-19T06:38:09.337Z,39.33
2018-12-19T06:40:38.070Z,39.75
2018-12-19T06:43:06.787Z,45.25
2018-12-19T06:45:35.538Z,41.23
2018-12-19T06:48:04.248Z,44.83
2018-12-19T06:50:32.948Z,41.68
2018-12-19T06:53:01.690Z,39.65
2018-12-19T06:55:30.426Z,42.62
2018-12-19T06:57:59.194Z,46.48
2018-12-19T07:00:27.933Z,41.18
2018-12-19T07:02:56.675Z,41.42
2018-12-19T07:05:25.352Z,40.75
2018-12-19T07:07:54.064Z,40.80
2018-12-19T07:10:22.789Z,38.83
2018-12-19T07:12:51.538Z,37.63
2018-12-19T07:15:20.251Z,40.75
2018-12-19T07:17:48.911Z,36.00
2018-12-19T07:20:17.671Z,40.17
2018-12-19T07:22:46.429Z,45.52
2018-12-19T07:25:15.112Z,40.60
2018-12-19T07:27:43.824Z,39.25
2018-12-19T07:30:12.526Z,42.30
2018-12-19T07:32:41.213Z,42.60
2018-12-19T07:35:09.926Z,41.20
2018-12-19T07:37:38.635Z,39.23
2018-12-19T07:40:07.344Z,41.37
2018-12-19T07:42:36.056Z,43.13
2018-12-19T07:45:05.249Z,45.43
2018-12-19T07:47:33.989Z,33.50
2018-12-19T07:50:02.742Z,43.95
2018-12-19T07:52:31.454Z,36.00
2018-12-19T07:55:00.181Z,40.52
2018-12-19T07:57:28.905Z,37.48
2018-12-19T07:59:57.672Z,41.42
2018-12-19T08:02:26.336Z,34.80
2018-12-19T08:04:55.211Z,42.85
2018-12-19T08:07:23.937Z,37.10
2018-12-19T08:09:52.655Z,33.35
2018-12-19T08:12:21.390Z,35.45
2018-12-19T08:14:51.761Z,40.12
2018-12-19T08:17:20.532Z,40.43
2018-12-19T08:19:49.254Z,37.35
2018-12-19T08:22:18.051Z,38.28
2018-12-19T08:24:46.764Z,34.73
2018-12-19T08:27:15.498Z,36.63
2018-12-19T08:29:44.180Z,39.27
2018-12-19T08:32:12.871Z,35.33
2018-12-19T08:34:41.646Z,40.90
2018-12-19T08:37:10.372Z,37.15
2018-12-19T08:39:39.084Z,33.42
2018-12-19T08:42:07.747Z,33.75
2018-12-19T08:44:36.476Z,31.77
2018-12-19T08:47:05.174Z,39.67
2018-12-19T08:49:33.877Z,33.30
2018-12-19T08:52:02.623Z,39.35
2018-12-19T08:54:31.597Z,37.80
2018-12-19T08:57:00.263Z,32.93
2018-12-19T08:59:28.947Z,30.60
2018-12-19T09:01:57.656Z,31.68
2018-12-19T09:04:26.411Z,32.78
2018-12-19T09:06:55.139Z,37.03
2018-12-19T09:09:23.846Z,37.55
2018-12-19T09:11:52.571Z,34.25
2018-12-19T09:14:21.314Z,36.10
2018-12-19T09:16:50.050Z,32.73
2018-12-19T09:19:18.762Z,33.95
2018-12-19T09:21:47.494Z,32.40
2018-12-19T09:24:16.239Z,34.53
2018-12-19T09:26:44.972Z,41.23
2018-12-19T09:29:13.743Z,36.45
2018-12-19T09:31:45.646Z,35.17
2018-12-19T09:34:15.305Z,39.50
2018-12-19T09:36:44.023Z,38.53
2018-12-19T09:39:12.773Z,37.23
2018-12-19T09:41:41.468Z,37.93
2018-12-19T09:44:10.509Z,35.30
2018-12-19T09:46:39.322Z,34.60
2018-12-19T09:49:12.369Z,33.50
2018-12-19T09:51:39.028Z,31.85
2018-12-19T09:54:08.116Z,31.15
2018-12-19T09:56:36.873Z,36.17
2018-12-19T09:59:05.685Z,34.80
2018-12-19T10:01:34.708Z,34.90
2018-12-19T10:04:03.500Z,32.85
2018-12-19T10:06:32.169Z,34.75
2018-12-19T10:09:00.988Z,31.68
2018-12-19T10:11:29.726Z,34.27
2018-12-19T10:13:58.442Z,28.47
2018-12-19T10:16:27.164Z,32.75
2018-12-19T10:18:55.874Z,33.53
2018-12-19T10:21:24.551Z,33.53
2018-12-19T10:23:53.294Z,33.30
2018-12-19T10:26:22.047Z,32.85
2018-12-19T10:28:50.750Z,31.82
2018-12-19T10:31:19.560Z,35.38
2018-12-19T10:33:48.233Z,34.88
2018-12-19T10:36:18.632Z,27.98
2018-12-19T10:38:47.324Z,29.30
2018-12-19T10:41:16.267Z,28.85
2018-12-19T10:43:45.022Z,28.12
2018-12-19T10:46:13.816Z,29.63
2018-12-19T10:48:42.493Z,32.28
2018-12-19T10:51:11.213Z,32.93
2018-12-19T10:53:39.950Z,33.92
2018-12-19T10:56:08.654Z,35.63
2018-12-19T10:58:37.356Z,35.23
2018-12-19T11:01:06.063Z,27.58
2018-12-19T11:03:34.786Z,30.20
2018-12-19T11:06:03.554Z,31.48
2018-12-19T11:08:32.221Z,32.98
2018-12-19T11:11:00.890Z,31.68
2018-12-19T11:13:29.626Z,28.47
2018-12-19T11:15:58.316Z,28.50
2018-12-19T11:18:27.011Z,32.70
2018-12-19T11:20:55.728Z,31.05
2018-12-19T11:23:24.401Z,29.25
2018-12-19T11:25:53.110Z,28.83
2018-12-19T11:28:21.879Z,26.70
2018-12-19T11:30:50.739Z,30.62
2018-12-19T11:33:19.408Z,30.90
2018-12-19T11:35:48.174Z,29.65
2018-12-19T11:38:16.871Z,31.10
2018-12-19T11:40:45.551Z,26.75
2018-12-19T11:43:14.254Z,27.20
2018-12-19T11:45:42.980Z,30.60
2018-12-19T11:48:11.685Z,30.62
2018-12-19T11:50:40.474Z,32.05
2018-12-19T11:53:09.152Z,35.60
2018-12-19T11:55:37.816Z,29.40
2018-12-19T11:58:06.555Z,29.85
2018-12-19T12:00:35.409Z,30.55
2018-12-19T12:03:04.315Z,29.10
2018-12-19T12:05:32.992Z,29.07
2018-12-19T12:08:01.698Z,25.62
2018-12-19T12:10:30.370Z,29.85
2018-12-19T12:12:59.077Z,29.82
2018-12-19T12:15:27.801Z,28.95
2018-12-19T12:17:56.530Z,28.83
2018-12-19T12:20:25.226Z,27.37
2018-12-19T12:22:53.896Z,24.77
2018-12-19T12:25:22.581Z,30.50
2018-12-19T12:27:51.432Z,27.77
2018-12-19T12:30:20.115Z,25.92
2018-12-19T12:32:48.816Z,30.88
2018-12-19T12:35:17.512Z,28.55
2018-12-19T12:37:46.216Z,29.18
2018-12-19T12:40:14.954Z,29.57
2018-12-19T12:42:43.670Z,22.80
2018-12-19T12:45:12.406Z,29.48
2018-12-19T12:47:41.159Z,26.65
2018-12-19T12:50:09.835Z,30.30
2018-12-19T12:52:40.048Z,27.67
2018-12-19T12:55:08.712Z,31.10
2018-12-19T12:57:37.413Z,27.50
2018-12-19T13:00:07.177Z,28.87
2018-12-19T13:02:35.981Z,29.37
2018-12-19T13:05:04.739Z,25.50
2018-12-19T13:07:33.487Z,30.35
2018-12-19T13:10:02.218Z,30.90
2018-12-19T13:12:31.049Z,27.62
2018-12-19T13:14:59.775Z,30.00
2018-12-19T13:17:28.461Z,30.97
2018-12-19T13:19:57.165Z,29.85
2018-12-19T13:22:25.831Z,27.95
2018-12-19T13:24:54.542Z,27.42
2018-12-19T13:27:23.252Z,26.05
2018-12-19T13:29:51.955Z,29.25
2018-12-19T13:32:20.681Z,28.02
2018-12-19T13:34:49.402Z,25.20
2018-12-19T13:37:18.186Z,28.40
2018-12-19T13:39:46.918Z,25.20
2018-12-19T13:42:15.628Z,29.48
2018-12-19T13:44:44.366Z,27.98
2018-12-19T13:47:13.094Z,26.27
2018-12-19T13:49:41.788Z,30.40
2018-12-19T13:52:10.729Z,26.48
2018-12-19T13:54:39.470Z,29.18
2018-12-19T13:57:08.168Z,29.37
2018-12-19T13:59:36.899Z,29.80
2018-12-19T14:02:05.684Z,28.02
2018-12-19T14:04:34.394Z,34.15
2018-12-19T14:07:03.096Z,30.92
2018-12-19T14:09:31.841Z,27.50
2018-12-19T14:12:00.614Z,26.82
2018-12-19T14:14:29.356Z,28.23
2018-12-19T14:16:58.105Z,28.60
2018-12-19T14:19:26.843Z,27.13
2018-12-19T14:21:55.582Z,29.35
2018-12-19T14:24:24.303Z,26.35
2018-12-19T14:26:53.033Z,27.50
2018-12-19T14:29:21.758Z,27.48
2018-12-19T14:31:50.435Z,28.67
2018-12-19T14:34:19.145Z,28.90
2018-12-19T14:36:47.982Z,31.25
2018-12-19T14:39:16.715Z,27.45
2018-12-19T14:41:45.454Z,31.65
2018-12-19T14:44:14.165Z,28.45
2018-12-19T14:46:42.884Z,30.00
2018-12-19T14:49:14.060Z,30.40
2018-12-19T14:51:42.384Z,29.50
2018-12-19T14:54:11.041Z,28.25
2018-12-19T14:56:39.795Z,28.20
2018-12-19T14:59:08.533Z,27.05
2018-12-19T15:01:37.274Z,32.60
2018-12-19T15:04:06.050Z,28.27
2018-12-19T15:06:34.786Z,32.48
2018-12-19T15:09:03.897Z,27.73
2018-12-19T15:11:32.583Z,25.10
2018-12-19T15:14:01.625Z,30.45
2018-12-19T15:16:30.362Z,28.62
2018-12-19T15:18:59.106Z,30.95
2018-12-19T15:21:27.840Z,27.85
2018-12-19T15:23:56.499Z,29.00
2018-12-19T15:26:25.287Z,31.93
2018-12-19T15:28:54.076Z,32.38
2018-12-19T15:31:22.799Z,27.07
2018-12-19T15:33:53.032Z,30.02
2018-12-19T15:36:22.071Z,26.62
2018-12-19T15:38:50.962Z,30.68
2018-12-19T15:41:19.768Z,26.45
2018-12-19T15:43:48.580Z,31.15
2018-12-19T15:46:17.336Z,25.68
2018-12-19T15:48:46.065Z,26.87
2018-12-19T15:51:15.021Z,27.00
2018-12-19T15:53:43.766Z,27.22
2018-12-19T15:56:12.523Z,29.20
2018-12-19T15:58:41.218Z,29.80
2018-12-19T16:01:09.949Z,28.70
2018-12-19T16:03:38.755Z,27.93
2018-12-19T16:06:07.690Z,28.83
2018-12-19T16:08:36.470Z,31.27
2018-12-19T16:11:05.266Z,28.75
2018-12-19T16:13:34.217Z,33.58
2018-12-19T16:16:02.917Z,28.83
2018-12-19T16:18:31.654Z,30.80
2018-12-19T16:21:00.360Z,26.52
2018-12-19T16:23:29.239Z,26.90
2018-12-19T16:25:57.956Z,31.12
2018-12-19T16:28:26.658Z,30.52
2018-12-19T16:30:55.410Z,29.42
2018-12-19T16:33:24.077Z,32.55
2018-12-19T16:35:52.791Z,25.37
2018-12-19T16:38:21.509Z,29.92
2018-12-19T16:40:50.229Z,28.60
2018-12-19T16:43:18.895Z,30.48
2018-12-19T16:45:47.676Z,33.40
2018-12-19T16:48:16.402Z,28.77
2018-12-19T16:50:45.092Z,32.33
2018-12-19T16:53:14.242Z,28.15
2018-12-19T16:55:42.946Z,28.65
2018-12-19T16:58:11.632Z,26.35
2018-12-19T17:00:40.377Z,24.80
2018-12-19T17:03:09.053Z,31.12
2018-12-19T17:05:37.753Z,28.85
2018-12-19T17:08:06.491Z,29.37
2018-12-19T17:10:35.230Z,30.30
2018-12-19T17:13:03.956Z,30.57
2018-12-19T17:15:32.627Z,27.05
2018-12-19T17:18:01.419Z,26.70
2018-12-19T17:20:30.148Z,28.52
2018-12-19T17:22:58.887Z,31.25
2018-12-19T17:25:27.588Z,31.33
2018-12-19T17:27:56.276Z,30.92
2018-12-19T17:30:25.060Z,31.55
2018-12-19T17:32:53.808Z,30.65
2018-12-19T17:35:22.521Z,33.50
2018-12-19T17:37:51.262Z,28.20
2018-12-19T17:40:19.985Z,54.10
2018-12-19T17:42:48.735Z,30.48
2018-12-19T17:45:17.469Z,27.75
2018-12-19T17:47:46.267Z,32.20
2018-12-19T17:50:14.959Z,33.67
2018-12-19T17:52:43.648Z,30.80
2018-12-19T17:55:12.403Z,31.75
2018-12-19T17:57:41.219Z,30.72
2018-12-19T18:00:11.726Z,34.27
2018-12-19T18:02:40.454Z,35.25
2018-12-19T18:05:09.188Z,33.73
2018-12-19T18:07:37.936Z,33.95
2018-12-19T18:10:06.819Z,33.92
2018-12-19T18:12:35.580Z,34.00
2018-12-19T18:15:04.804Z,35.80
2018-12-19T18:17:33.472Z,35.58
2018-12-19T18:20:02.203Z,31.55
2018-12-19T18:22:30.950Z,33.28
2018-12-19T18:24:59.863Z,32.45
2018-12-19T18:27:28.595Z,33.88
2018-12-19T18:29:57.289Z,36.60
2018-12-19T18:32:26.006Z,39.58
2018-12-19T18:34:54.792Z,36.15
2018-12-19T18:37:23.529Z,39.18
2018-12-19T18:39:52.335Z,45.30
2018-12-19T18:42:21.106Z,33.25
2018-12-19T18:44:49.815Z,35.35
2018-12-19T18:47:18.519Z,33.00
2018-12-19T18:49:47.270Z,38.78
2018-12-19T18:52:16.244Z,34.30
2018-12-19T18:54:45.056Z,32.90
2018-12-19T18:57:13.802Z,38.28
2018-12-19T18:59:42.636Z,44.60
2018-12-19T19:02:11.661Z,38.53
2018-12-19T19:04:40.424Z,131.52
2018-12-19T19:07:09.233Z,42.50
2018-12-19T19:09:38.222Z,37.08
2018-12-19T19:12:07.010Z,35.95
2018-12-19T19:14:35.818Z,37.60
2018-12-19T19:17:04.635Z,35.03
2018-12-19T19:19:33.340Z,35.13
2018-12-19T19:22:02.075Z,39.63
2018-12-19T19:24:30.858Z,36.58
2018-12-19T19:26:59.714Z,37.65
2018-12-19T19:29:28.433Z,43.23
2018-12-19T19:31:57.202Z,36.33
2018-12-19T19:34:25.930Z,39.40
2018-12-19T19:36:54.892Z,36.98
2018-12-19T19:39:23.639Z,33.40
2018-12-19T19:41:52.386Z,38.78
2018-12-19T19:44:21.119Z,35.28
2018-12-19T19:46:49.873Z,36.70
2018-12-19T19:49:18.670Z,39.65
2018-12-19T19:51:47.890Z,37.90
2018-12-19T19:54:16.657Z,37.53
2018-12-19T19:56:45.415Z,39.67
2018-12-19T19:59:14.121Z,41.50
2018-12-19T20:01:42.921Z,36.88
2018-12-19T20:04:11.647Z,37.45
2018-12-19T20:06:40.369Z,43.60
2018-12-19T20:09:09.311Z,37.42
2018-12-19T20:11:38.068Z,34.85
2018-12-19T20:14:06.799Z,38.25
2018-12-19T20:16:37.221Z,40.58
2018-12-19T20:19:06.030Z,43.20
2018-12-19T20:21:34.737Z,38.85
2018-12-19T20:24:03.461Z,38.13
2018-12-19T20:26:32.162Z,37.63
2018-12-19T20:29:00.979Z,59.30
2018-12-19T20:31:29.711Z,40.17
2018-12-19T20:33:58.467Z,39.42
2018-12-19T20:36:27.247Z,35.35
2018-12-19T20:38:55.946Z,37.05
2018-12-19T20:41:24.713Z,39.90
2018-12-19T20:43:53.488Z,38.45
2018-12-19T20:46:22.206Z,40.33
2018-12-19T20:48:50.941Z,38.20
2018-12-19T20:51:19.662Z,41.53
2018-12-19T20:53:48.526Z,34.92
2018-12-19T20:56:17.300Z,38.08
2018-12-19T20:58:46.337Z,41.08
2018-12-19T21:01:15.133Z,40.17
2018-12-19T21:03:45.266Z,34.38
2018-12-19T21:06:14.438Z,39.90
2018-12-19T21:08:43.201Z,34.83
2018-12-19T21:11:11.873Z,34.00
2018-12-19T21:13:46.575Z,40.67
2018-12-19T21:16:11.386Z,37.05
2018-12-19T21:18:42.568Z,42.08
2018-12-19T21:21:11.304Z,33.05
2018-12-19T21:23:40.038Z,39.60
2018-12-19T21:26:08.808Z,37.28
2018-12-19T21:28:37.590Z,38.17
2018-12-19T21:31:06.355Z,34.43
2018-12-19T21:33:35.120Z,36.98
2018-12-19T21:36:03.831Z,41.20
2018-12-19T21:38:32.529Z,35.33
2018-12-19T21:41:01.517Z,35.50
2018-12-19T21:43:30.333Z,34.73
2018-12-19T21:45:59.187Z,36.17
2018-12-19T21:48:28.192Z,39.95
2018-12-19T21:50:56.961Z,41.55
2018-12-19T21:53:25.669Z,38.75
2018-12-19T21:55:54.765Z,36.23
2018-12-19T21:58:23.757Z,41.08
2018-12-19T22:00:52.685Z,38.50
2018-12-19T22:03:21.496Z,37.60
2018-12-19T22:05:50.438Z,39.55
2018-12-19T22:08:19.353Z,36.38
2018-12-19T22:10:48.086Z,39.08
2018-12-19T22:13:16.805Z,37.28
2018-12-19T22:15:45.498Z,38.55
2018-12-19T22:18:20.065Z,42.80
2018-12-19T22:20:48.900Z,46.75
2018-12-19T22:23:17.908Z,44.00
2018-12-19T22:25:46.920Z,40.52
2018-12-19T22:28:15.648Z,38.05
2018-12-19T22:30:44.521Z,37.15
2018-12-19T22:33:13.488Z,40.52
2018-12-19T22:35:42.232Z,39.55
2018-12-19T22:38:11.145Z,40.00
2018-12-19T22:40:39.901Z,44.13
2018-12-19T22:43:09.122Z,40.70
2018-12-19T22:45:38.095Z,38.65
2018-12-19T22:48:06.813Z,39.48
2018-12-19T22:50:35.557Z,43.42
2018-12-19T22:53:04.341Z,38.55
2018-12-19T22:55:33.342Z,40.75
2018-12-19T22:58:02.293Z,43.63
2018-12-19T23:00:32.706Z,40.20
2018-12-19T23:03:07.279Z,42.00
2018-12-19T23:05:41.788Z,42.00
2018-12-19T23:08:10.561Z,38.67
2018-12-19T23:10:39.448Z,43.58
2018-12-19T23:13:08.441Z,40.95
2018-12-19T23:15:37.243Z,46.92
2018-12-19T23:18:11.691Z,36.98
2018-12-19T23:20:40.478Z,40.65
2018-12-19T23:23:09.222Z,45.65
2018-12-19T23:25:37.891Z,39.98
2018-12-19T23:28:06.626Z,41.30
2018-12-19T23:30:35.469Z,40.95
2018-12-19T23:33:04.549Z,45.45
2018-12-19T23:35:33.633Z,44.00
2018-12-19T23:38:02.629Z,41.92
2018-12-19T23:40:31.627Z,40.45
2018-12-19T23:43:00.545Z,48.55
2018-12-19T23:45:29.355Z,42.90
2018-12-19T23:47:58.428Z,47.75
2018-12-19T23:50:27.431Z,40.20
2018-12-19T23:52:56.265Z,43.65
2018-12-19T23:55:25.330Z,47.70
2018-12-19T23:57:54.259Z,47.33
